DAG weather

Barstow Daggett Airport
Daggett, California, United States

Public forecast

Using degrees Fahrenheit for public forecast. Weather courtesy of forecast.io.

Current aviation weather report (METAR) for Barstow Daggett Airport

Retrieved 2020/08/06 05:50 UTC (57 minutes ago):

KDAG 060550Z AUTO 25014KT 10SM CLR 29/05 A2983 RMK AO2 SLP069 T02890050 10389 20289 51015

Aviation forecast (TAF) for Barstow Daggett Airport

Retrieved 2020/08/06 06:22 UTC (25 minutes ago):

TAF KDAG 060520Z 0606/0706 26015KT P6SM SKC FM061400 28010KT P6SM SKC FM061900 26013G20KT P6SM SKC